Time;durP1;ratioP1;P1;durP2;ratioP2;P2;SDS_P1;SDS_P2;PMS_P1;PMS_P2;Temp;Humidity;BMP_temperature;BMP_pressure;BME280_temperature;BME280_humidity;BME280_pressure;Samples;Min_cycle;Max_cycle;Signal;HPM_P1;HPM_P2
2023/06/22 00:00:09;;;;;;;18.02;14.82;;;;;;;;;;5117112;28;20052;-84
2023/06/22 00:02:37;;;;;;;;;;;;;;;;;;5117746;28;20059;-84
2023/06/22 00:05:08;;;;;;;18.02;16.17;;;;;;;;;;5116067;28;19939;-84
2023/06/22 00:07:35;;;;;;;18.48;16.55;;;;;;;;;;5117155;28;20055;-84
2023/06/22 00:10:02;;;;;;;17.83;16.15;;;;;;;;;;5115820;28;20094;-84
2023/06/22 00:12:30;;;;;;;16.15;14.65;;;;;;;;;;5115650;28;20044;-84
2023/06/22 00:14:57;;;;;;;19.90;16.15;;;;;;;;;;5116839;28;20096;-84
2023/06/22 00:17:24;;;;;;;16.52;14.85;;;;;;;;;;5116863;28;20058;-84
2023/06/22 00:19:55;;;;;;;17.73;15.95;;;;;;;;;;5116736;27;20492;-84
2023/06/22 00:22:28;;;;;;;18.10;15.88;;;;;;;;;;5115417;28;20043;-84
2023/06/22 00:24:55;;;;;;;;;;;;;;;;;;5117278;28;20079;-84
2023/06/22 00:27:23;;;;;;;17.77;15.90;;;;;;;;;;5115603;28;19924;-84
2023/06/22 00:29:50;;;;;;;19.20;17.20;;;;;;;;;;5116552;28;20051;-84
2023/06/22 00:32:18;;;;;;;17.38;15.60;;;;;;;;;;5115120;28;20086;-84
2023/06/22 00:34:46;;;;;;;16.58;14.85;;;;;;;;;;5115575;28;20131;-85
2023/06/22 00:37:13;;;;;;;16.92;15.23;;;;;;;;;;5115165;28;20050;-84
2023/06/22 00:39:40;;;;;;;17.40;15.60;;;;;;;;;;5115595;28;20412;-84
2023/06/22 00:42:07;;;;;;;18.38;16.30;;;;;;;;;;5115050;28;20109;-84
2023/06/22 00:44:35;;;;;;;17.88;16.08;;;;;;;;;;5116145;28;20051;-84
2023/06/22 00:47:03;;;;;;;17.95;16.17;;;;;;;;;;5116335;28;20044;-84
2023/06/22 00:49:30;;;;;;;19.08;17.08;;;;;;;;;;5115129;28;20060;-84
2023/06/22 00:51:58;;;;;;;17.85;16.05;;;;;;;;;;5114986;28;20465;-84
2023/06/22 00:54:25;;;;;;;20.10;18.27;;;;;;;;;;5114992;28;20054;-84
2023/06/22 00:56:56;;;;;;;20.40;18.50;;;;;;;;;;5116156;28;20088;-84
2023/06/22 00:59:25;;;;;;;20.08;17.13;;;;;;;;;;5116147;28;20411;-85
2023/06/22 01:01:52;;;;;;;19.67;16.85;;;;;;;;;;5116058;27;20044;-84
2023/06/22 01:04:19;;;;;;;18.17;16.20;;;;;;;;;;5114636;28;20047;-84
2023/06/22 01:06:53;;;;;;;19.05;17.08;;;;;;;;;;5115868;28;20434;-85
2023/06/22 01:09:26;;;;;;;18.75;16.92;;;;;;;;;;5114924;28;20404;-84
2023/06/22 01:11:55;;;;;;;20.25;17.25;;;;;;;;;;5114520;28;20051;-84
2023/06/22 01:14:31;;;;;;;18.15;16.40;;;;;;;;;;5114370;28;20082;-85
2023/06/22 01:17:00;;;;;;;18.33;16.63;;;;;;;;;;5115882;28;20047;-85
2023/06/22 01:19:44;;;;;;;18.23;16.55;;;;;;;;;;5114588;28;20051;-84
2023/06/22 01:22:12;;;;;;;19.48;17.45;;;;;;;;;;5114623;28;20491;-85
2023/06/22 01:24:46;;;;;;;18.58;16.20;;;;;;;;;;5114628;28;20380;-84
2023/06/22 01:27:21;;;;;;;19.13;17.25;;;;;;;;;;5114323;28;20100;-84
2023/06/22 01:29:51;;;;;;;18.73;16.85;;;;;;;;;;5114298;28;20096;-84
2023/06/22 01:32:19;;;;;;;18.60;16.80;;;;;;;;;;5115046;28;20165;-84
2023/06/22 01:34:48;;;;;;;18.98;16.80;;;;;;;;;;5114247;28;20130;-84
2023/06/22 01:37:16;;;;;;;19.27;17.35;;;;;;;;;;5115031;28;20079;-84
2023/06/22 01:39:43;;;;;;;24.33;18.63;;;;;;;;;;5114273;28;20094;-84
2023/06/22 01:42:10;;;;;;;21.95;18.45;;;;;;;;;;5114065;28;20055;-83
2023/06/22 01:44:38;;;;;;;20.83;18.27;;;;;;;;;;5114277;28;20052;-84
2023/06/22 01:47:05;;;;;;;20.27;18.15;;;;;;;;;;5114007;28;20116;-84
2023/06/22 01:49:32;;;;;;;19.95;18.05;;;;;;;;;;5113944;28;20082;-84
2023/06/22 01:52:00;;;;;;;18.60;16.60;;;;;;;;;;5113606;28;20040;-84
2023/06/22 01:54:27;;;;;;;19.33;17.30;;;;;;;;;;5114326;28;20469;-84
2023/06/22 01:56:54;;;;;;;20.45;18.38;;;;;;;;;;5113769;28;20048;-84
2023/06/22 01:59:31;;;;;;;20.85;18.65;;;;;;;;;;5114905;28;20112;-84
2023/06/22 02:02:04;;;;;;;24.55;18.55;;;;;;;;;;5113369;28;20050;-84
2023/06/22 02:04:35;;;;;;;21.00;18.90;;;;;;;;;;5114596;27;20105;-84
2023/06/22 02:07:06;;;;;;;21.73;18.13;;;;;;;;;;5114330;28;20419;-84
2023/06/22 02:09:34;;;;;;;20.73;18.45;;;;;;;;;;5113292;28;20044;-84
2023/06/22 02:12:03;;;;;;;21.05;18.88;;;;;;;;;;5114529;28;20044;-84
2023/06/22 02:14:30;;;;;;;19.85;17.77;;;;;;;;;;5113213;28;20059;-84
2023/06/22 02:16:59;;;;;;;19.90;17.95;;;;;;;;;;5113049;28;20043;-84
2023/06/22 02:19:27;;;;;;;19.95;17.85;;;;;;;;;;5113143;28;20055;-84
2023/06/22 02:21:54;;;;;;;21.58;19.02;;;;;;;;;;5114312;28;20052;-84
2023/06/22 02:24:23;;;;;;;21.35;18.33;;;;;;;;;;5112910;28;20051;-84
2023/06/22 02:26:50;;;;;;;22.23;19.92;;;;;;;;;;5114204;28;20055;-84
2023/06/22 02:29:17;;;;;;;19.73;17.55;;;;;;;;;;5113910;28;20051;-84
2023/06/22 02:31:45;;;;;;;20.80;18.90;;;;;;;;;;5113911;28;20055;-84
2023/06/22 02:34:17;;;;;;;22.10;19.75;;;;;;;;;;5112668;28;20472;-84
2023/06/22 02:36:51;;;;;;;22.53;19.87;;;;;;;;;;5114009;28;20040;-84
2023/06/22 02:39:22;;;;;;;20.58;17.92;;;;;;;;;;5114170;28;20400;-84
2023/06/22 02:41:53;;;;;;;19.88;17.77;;;;;;;;;;5113979;28;20096;-84
2023/06/22 02:44:21;;;;;;;20.13;17.85;;;;;;;;;;5112833;28;20503;-84
2023/06/22 02:46:49;;;;;;;20.05;17.95;;;;;;;;;;5112936;28;20051;-84
2023/06/22 02:49:16;;;;;;;20.17;18.23;;;;;;;;;;5112518;28;20043;-84
2023/06/22 02:51:45;;;;;;;20.77;18.63;;;;;;;;;;5113840;28;20054;-84
2023/06/22 02:54:13;;;;;;;20.15;18.05;;;;;;;;;;5112341;28;20043;-84
2023/06/22 02:56:40;;;;;;;19.98;17.80;;;;;;;;;;5113713;28;20043;-84
2023/06/22 02:59:07;;;;;;;19.60;17.65;;;;;;;;;;5112260;28;20048;-84
2023/06/22 03:01:37;;;;;;;20.90;18.77;;;;;;;;;;5112459;28;20047;-84
2023/06/22 03:04:04;;;;;;;21.20;19.00;;;;;;;;;;5113396;28;20460;-84
2023/06/22 03:06:32;;;;;;;22.38;19.05;;;;;;;;;;5113333;28;20541;-84
2023/06/22 03:09:00;;;;;;;21.38;19.33;;;;;;;;;;5112164;28;20086;-84
2023/06/22 03:11:28;;;;;;;22.25;20.17;;;;;;;;;;5112422;28;20044;-84
2023/06/22 03:13:55;;;;;;;23.98;21.52;;;;;;;;;;5112214;28;20105;-84
2023/06/22 03:16:22;;;;;;;25.23;21.75;;;;;;;;;;5112358;28;20097;-84
2023/06/22 03:18:49;;;;;;;23.77;21.25;;;;;;;;;;5112336;28;20048;-84
2023/06/22 03:21:17;;;;;;;23.88;21.40;;;;;;;;;;5113304;28;20407;-84
2023/06/22 03:23:44;;;;;;;23.27;20.73;;;;;;;;;;5112328;28;20043;-84
2023/06/22 03:26:11;;;;;;;21.92;19.63;;;;;;;;;;5112150;28;20087;-85
2023/06/22 03:28:39;;;;;;;23.85;19.80;;;;;;;;;;5112071;28;20052;-84
2023/06/22 03:31:06;;;;;;;21.02;18.88;;;;;;;;;;5111981;28;20051;-84
2023/06/22 03:33:34;;;;;;;20.63;18.42;;;;;;;;;;5111827;28;20498;-84
2023/06/22 03:36:01;;;;;;;21.35;18.63;;;;;;;;;;5113349;28;20071;-84
2023/06/22 03:38:28;;;;;;;21.10;18.40;;;;;;;;;;5113195;28;20044;-83
2023/06/22 03:40:55;;;;;;;20.50;18.40;;;;;;;;;;5113226;28;20108;-84
2023/06/22 03:43:23;;;;;;;22.10;19.80;;;;;;;;;;5112285;28;20503;-84
2023/06/22 03:45:50;;;;;;;25.65;21.75;;;;;;;;;;5113215;28;20047;-84
2023/06/22 03:48:18;;;;;;;20.00;18.10;;;;;;;;;;5113370;28;20081;-84
2023/06/22 03:50:45;;;;;;;20.30;18.25;;;;;;;;;;5111827;28;20044;-84
2023/06/22 03:53:13;;;;;;;18.55;16.63;;;;;;;;;;5112814;28;20083;-84
2023/06/22 03:55:49;;;;;;;17.73;15.93;;;;;;;;;;5112099;28;20036;-84
2023/06/22 03:58:16;;;;;;;20.90;16.52;;;;;;;;;;5111878;28;20484;-84
2023/06/22 04:00:44;;;;;;;18.88;16.92;;;;;;;;;;5111788;28;20101;-84
2023/06/22 04:03:11;;;;;;;19.00;16.70;;;;;;;;;;5111554;28;20489;-83
2023/06/22 04:05:39;;;;;;;18.60;15.95;;;;;;;;;;5113199;28;20051;-84
2023/06/22 04:08:07;;;;;;;18.50;16.73;;;;;;;;;;5112875;28;20048;-85
2023/06/22 04:10:34;;;;;;;20.30;18.30;;;;;;;;;;5111837;28;20052;-85
2023/06/22 04:13:02;;;;;;;22.45;18.13;;;;;;;;;;5112815;28;20624;-86
2023/06/22 04:15:29;;;;;;;19.00;16.70;;;;;;;;;;5112161;28;20051;-86
2023/06/22 04:17:59;;;;;;;19.27;17.27;;;;;;;;;;5114447;28;20047;-87
2023/06/22 04:20:26;;;;;;;19.85;17.63;;;;;;;;;;5116215;28;20054;-87
2023/06/22 04:22:56;;;;;;;19.77;17.52;;;;;;;;;;5116091;28;20134;-86
2023/06/22 04:25:23;;;;;;;21.65;19.35;;;;;;;;;;5115730;28;20051;-86
2023/06/22 04:27:50;;;;;;;21.33;19.05;;;;;;;;;;5115893;28;20403;-85
2023/06/22 04:30:18;;;;;;;21.80;19.58;;;;;;;;;;5115524;28;20065;-86
2023/06/22 04:32:45;;;;;;;24.08;19.58;;;;;;;;;;5116557;28;20055;-86
2023/06/22 04:35:13;;;;;;;23.67;21.17;;;;;;;;;;5115439;28;20093;-83
2023/06/22 04:37:40;;;;;;;22.67;20.42;;;;;;;;;;5116958;28;20067;-86
2023/06/22 04:40:08;;;;;;;26.58;20.35;;;;;;;;;;5115476;28;20051;-86
2023/06/22 04:42:36;;;;;;;22.25;19.50;;;;;;;;;;5115594;28;20043;-86
2023/06/22 04:45:04;;;;;;;21.92;19.73;;;;;;;;;;5115462;28;20055;-85
2023/06/22 04:47:31;;;;;;;24.90;20.10;;;;;;;;;;5116273;28;20536;-86
2023/06/22 04:49:59;;;;;;;24.65;22.05;;;;;;;;;;5115523;28;20148;-86
2023/06/22 04:52:26;;;;;;;26.83;22.23;;;;;;;;;;5115234;28;20051;-85
2023/06/22 04:54:57;;;;;;;23.10;20.42;;;;;;;;;;5114902;28;20055;-85
2023/06/22 04:57:31;;;;;;;22.23;19.92;;;;;;;;;;5116172;28;20073;-86
2023/06/22 05:00:12;;;;;;;22.10;19.83;;;;;;;;;;5115066;28;20048;-85
2023/06/22 05:02:39;;;;;;;22.63;20.23;;;;;;;;;;5115121;28;20047;-85
2023/06/22 05:05:08;;;;;;;22.95;20.50;;;;;;;;;;5114841;28;20082;-85
2023/06/22 05:07:35;;;;;;;25.63;20.00;;;;;;;;;;5114917;28;20048;-85
2023/06/22 05:10:03;;;;;;;26.75;20.10;;;;;;;;;;5114700;28;20445;-85
2023/06/22 05:12:31;;;;;;;23.58;18.77;;;;;;;;;;5114835;28;20048;-86
2023/06/22 05:14:58;;;;;;;21.15;18.85;;;;;;;;;;5115567;28;20055;-86
2023/06/22 05:17:25;;;;;;;19.90;16.55;;;;;;;;;;5114682;28;20052;-85
2023/06/22 05:19:53;;;;;;;19.70;16.30;;;;;;;;;;5114342;28;20055;-85
2023/06/22 05:22:20;;;;;;;21.98;15.82;;;;;;;;;;5115675;28;20104;-85
2023/06/22 05:24:47;;;;;;;18.17;15.18;;;;;;;;;;5115462;28;20415;-85
2023/06/22 05:27:15;;;;;;;18.13;13.77;;;;;;;;;;5115339;28;20055;-84
2023/06/22 05:29:42;;;;;;;16.35;12.23;;;;;;;;;;5113930;28;20542;-85
2023/06/22 05:32:10;;;;;;;15.77;13.32;;;;;;;;;;5113957;28;20060;-84
2023/06/22 05:34:38;;;;;;;13.65;12.10;;;;;;;;;;5114105;28;20071;-84
2023/06/22 05:37:06;;;;;;;13.80;10.90;;;;;;;;;;5115115;28;20468;-84
2023/06/22 05:39:33;;;;;;;16.55;11.73;;;;;;;;;;5115269;28;20446;-84
2023/06/22 05:42:00;;;;;;;15.30;11.27;;;;;;;;;;5114963;28;20116;-85
2023/06/22 05:44:27;;;;;;;11.57;10.50;;;;;;;;;;5115320;28;20104;-82
2023/06/22 05:46:55;;;;;;;11.82;10.63;;;;;;;;;;5113904;28;20050;-82
2023/06/22 05:49:23;;;;;;;14.55;12.55;;;;;;;;;;5113739;28;20480;-85
2023/06/22 05:51:50;;;;;;;14.95;13.43;;;;;;;;;;5114530;28;20051;-85
2023/06/22 05:54:17;;;;;;;14.25;12.25;;;;;;;;;;5112113;28;20132;-83
2023/06/22 05:56:45;;;;;;;11.60;10.48;;;;;;;;;;5114441;28;20048;-81
2023/06/22 05:59:12;;;;;;;11.00;10.10;;;;;;;;;;5113557;28;20093;-82
2023/06/22 06:01:40;;;;;;;14.27;10.90;;;;;;;;;;5114407;28;20047;-82
2023/06/22 06:04:10;;;;;;;20.50;11.82;;;;;;;;;;5114033;28;20044;-84
2023/06/22 06:06:37;;;;;;;14.77;11.30;;;;;;;;;;5114606;27;20050;-84
2023/06/22 06:09:05;;;;;;;12.82;11.55;;;;;;;;;;5114669;28;20047;-84
2023/06/22 06:11:32;;;;;;;14.07;11.18;;;;;;;;;;5113331;28;20051;-84
2023/06/22 06:13:59;;;;;;;11.40;10.32;;;;;;;;;;5114317;28;20055;-84
2023/06/22 06:16:26;;;;;;;12.10;10.80;;;;;;;;;;5113294;28;20096;-84
2023/06/22 06:18:55;;;;;;;11.73;10.52;;;;;;;;;;5114277;28;20096;-82
2023/06/22 06:21:23;;;;;;;11.10;10.10;;;;;;;;;;5113107;28;20507;-82
2023/06/22 06:23:50;;;;;;;12.88;10.52;;;;;;;;;;5113029;28;20051;-82
2023/06/22 06:26:17;;;;;;;11.20;9.98;;;;;;;;;;5113067;28;20446;-82
2023/06/22 06:28:44;;;;;;;10.55;9.55;;;;;;;;;;5113042;28;20043;-81
2023/06/22 06:31:16;;;;;;;13.85;9.82;;;;;;;;;;5113994;28;20079;-82
2023/06/22 06:33:44;;;;;;;9.57;8.63;;;;;;;;;;5114242;28;20052;-84
2023/06/22 06:36:11;;;;;;;10.68;9.50;;;;;;;;;;5113031;28;20055;-82
2023/06/22 06:38:38;;;;;;;9.35;8.52;;;;;;;;;;5112955;28;20449;-82
2023/06/22 06:41:06;;;;;;;10.10;9.10;;;;;;;;;;5112232;28;20081;-82
2023/06/22 06:43:33;;;;;;;9.93;8.93;;;;;;;;;;5112829;28;20047;-82
2023/06/22 06:46:00;;;;;;;9.05;8.30;;;;;;;;;;5112431;28;20073;-82
2023/06/22 06:48:27;;;;;;;10.25;9.15;;;;;;;;;;5114151;28;20046;-82
2023/06/22 06:50:55;;;;;;;9.88;8.90;;;;;;;;;;5113961;28;20077;-82
2023/06/22 06:53:22;;;;;;;10.63;9.48;;;;;;;;;;5112908;28;20043;-83
2023/06/22 06:55:49;;;;;;;10.63;9.63;;;;;;;;;;5112644;28;20056;-82
2023/06/22 06:58:17;;;;;;;10.63;9.63;;;;;;;;;;5112732;28;20081;-82
2023/06/22 07:00:44;;;;;;;10.70;9.65;;;;;;;;;;5112756;28;20079;-82
2023/06/22 07:03:11;;;;;;;13.18;9.55;;;;;;;;;;5112558;28;20541;-82
2023/06/22 07:05:39;;;;;;;11.43;10.05;;;;;;;;;;5112301;28;20055;-83
2023/06/22 07:08:06;;;;;;;10.07;9.15;;;;;;;;;;5111719;28;20491;-84
2023/06/22 07:10:33;;;;;;;11.15;9.02;;;;;;;;;;5112520;28;20515;-82
2023/06/22 07:13:01;;;;;;;10.10;8.82;;;;;;;;;;5112934;28;20420;-82
2023/06/22 07:15:28;;;;;;;8.82;8.13;;;;;;;;;;5111767;28;20047;-83
2023/06/22 07:17:55;;;;;;;9.93;8.18;;;;;;;;;;5112153;28;20047;-83
2023/06/22 07:20:23;;;;;;;8.50;7.70;;;;;;;;;;5112263;28;20484;-83
2023/06/22 07:22:50;;;;;;;11.23;8.45;;;;;;;;;;5112254;28;20047;-82
2023/06/22 07:25:17;;;;;;;11.13;7.57;;;;;;;;;;5112224;28;20051;-85
2023/06/22 07:27:46;;;;;;;8.45;7.65;;;;;;;;;;5112165;28;20456;-84
2023/06/22 07:30:13;;;;;;;7.38;6.68;;;;;;;;;;5111754;28;20048;-84
2023/06/22 07:32:41;;;;;;;7.90;6.93;;;;;;;;;;5111898;28;20047;-83
2023/06/22 07:35:09;;;;;;;20.25;8.30;;;;;;;;;;5113076;28;20047;-84
2023/06/22 07:37:36;;;;;;;11.95;7.28;;;;;;;;;;5113010;28;20492;-85
2023/06/22 07:40:06;;;;;;;7.57;6.07;;;;;;;;;;5112249;28;20051;-84
2023/06/22 07:42:33;;;;;;;6.68;6.07;;;;;;;;;;5112428;28;20063;-84
2023/06/22 07:45:02;;;;;;;7.30;6.60;;;;;;;;;;5112364;28;20143;-83
2023/06/22 07:47:29;;;;;;;6.75;6.05;;;;;;;;;;5112658;28;20051;-84
2023/06/22 07:50:00;;;;;;;7.53;6.78;;;;;;;;;;5112712;28;20048;-87
2023/06/22 07:52:28;;;;;;;11.70;5.90;;;;;;;;;;5114007;28;20043;-87
2023/06/22 07:54:56;;;;;;;7.22;5.50;;;;;;;;;;5116487;28;20128;-86
2023/06/22 07:57:23;;;;;;;5.75;5.00;;;;;;;;;;5116524;28;20052;-84
2023/06/22 07:59:50;;;;;;;11.40;5.78;;;;;;;;;;5116699;28;20075;-85
2023/06/22 08:02:17;;;;;;;6.95;5.55;;;;;;;;;;5116378;28;20480;-83
2023/06/22 08:04:45;;;;;;;4.70;4.40;;;;;;;;;;5116158;28;20048;-84
2023/06/22 08:07:12;;;;;;;6.97;5.28;;;;;;;;;;5116270;28;20052;-84
2023/06/22 08:09:46;;;;;;;4.93;4.63;;;;;;;;;;5116199;28;20051;-83
2023/06/22 08:12:13;;;;;;;5.35;4.95;;;;;;;;;;5116111;28;20054;-85
2023/06/22 08:14:43;;;;;;;5.60;5.05;;;;;;;;;;5116262;28;20373;-85
2023/06/22 08:17:10;;;;;;;5.13;4.75;;;;;;;;;;5115596;28;20047;-84
2023/06/22 08:19:38;;;;;;;6.88;4.32;;;;;;;;;;5116881;28;20083;-83
2023/06/22 08:22:05;;;;;;;5.35;4.95;;;;;;;;;;5115798;28;20055;-83
2023/06/22 08:24:33;;;;;;;4.85;4.45;;;;;;;;;;5116017;28;20421;-86
2023/06/22 08:27:00;;;;;;;5.15;4.28;;;;;;;;;;5115797;28;20458;-85
2023/06/22 08:29:28;;;;;;;4.50;4.10;;;;;;;;;;5116074;28;20434;-88
2023/06/22 08:31:55;;;;;;;5.05;4.55;;;;;;;;;;5115801;28;20052;-83
2023/06/22 08:34:22;;;;;;;6.05;4.35;;;;;;;;;;5115547;28;20134;-84
2023/06/22 08:36:51;;;;;;;5.03;4.43;;;;;;;;;;5116706;28;20047;-83
2023/06/22 08:39:19;;;;;;;7.50;4.50;;;;;;;;;;5115420;28;20044;-84
2023/06/22 08:41:47;;;;;;;4.32;4.00;;;;;;;;;;5115532;28;20048;-84
2023/06/22 08:44:16;;;;;;;4.60;4.30;;;;;;;;;;5115292;28;20055;-84
2023/06/22 08:46:43;;;;;;;4.63;4.30;;;;;;;;;;5115452;28;20051;-85
2023/06/22 08:49:10;;;;;;;4.65;4.25;;;;;;;;;;5115298;28;20055;-85
2023/06/22 08:51:37;;;;;;;4.30;4.00;;;;;;;;;;5115428;28;20088;-83
2023/06/22 08:54:05;;;;;;;7.63;4.13;;;;;;;;;;5114922;28;20051;-84
2023/06/22 08:56:32;;;;;;;4.13;3.90;;;;;;;;;;5115282;28;20043;-83
2023/06/22 08:59:00;;;;;;;6.63;4.30;;;;;;;;;;5114928;28;20444;-84
2023/06/22 09:01:27;;;;;;;5.18;4.68;;;;;;;;;;5114842;28;20051;-86
2023/06/22 09:03:57;;;;;;;5.18;4.78;;;;;;;;;;5114460;28;20079;-81
2023/06/22 09:06:25;;;;;;;6.07;4.55;;;;;;;;;;5116074;28;20507;-84
2023/06/22 09:08:52;;;;;;;4.88;4.55;;;;;;;;;;5116324;28;20048;-83
2023/06/22 09:11:19;;;;;;;5.10;4.22;;;;;;;;;;5115364;28;20077;-84
2023/06/22 09:13:47;;;;;;;5.05;4.55;;;;;;;;;;5115261;28;20047;-86
2023/06/22 09:16:14;;;;;;;4.63;4.22;;;;;;;;;;5114951;28;20085;-84
2023/06/22 09:18:41;;;;;;;4.60;4.20;;;;;;;;;;5115036;28;20044;-84
2023/06/22 09:21:09;;;;;;;7.45;4.50;;;;;;;;;;5114759;28;20165;-85
2023/06/22 09:23:36;;;;;;;19.95;5.00;;;;;;;;;;5114729;28;20483;-84
2023/06/22 09:26:04;;;;;;;4.70;4.40;;;;;;;;;;5114962;28;20101;-84
2023/06/22 09:28:31;;;;;;;5.03;4.32;;;;;;;;;;5115332;28;20043;-84
2023/06/22 09:30:59;;;;;;;4.55;4.13;;;;;;;;;;5113292;28;20047;-84
2023/06/22 09:33:27;;;;;;;5.28;4.78;;;;;;;;;;5114522;28;20087;-83
2023/06/22 09:35:54;;;;;;;4.50;4.20;;;;;;;;;;5113256;28;20419;-84
2023/06/22 09:38:21;;;;;;;8.05;4.05;;;;;;;;;;5114467;28;20079;-84
2023/06/22 09:40:48;;;;;;;4.78;4.15;;;;;;;;;;5114047;28;20109;-85
2023/06/22 09:43:16;;;;;;;4.90;4.07;;;;;;;;;;5115528;28;20491;-84
2023/06/22 09:45:43;;;;;;;5.03;4.55;;;;;;;;;;5114040;28;20097;-87
2023/06/22 09:48:13;;;;;;;5.88;4.03;;;;;;;;;;5114365;28;20048;-84
2023/06/22 09:50:40;;;;;;;4.85;4.45;;;;;;;;;;5114386;28;20108;-85
2023/06/22 09:53:07;;;;;;;4.50;4.00;;;;;;;;;;5113565;28;20055;-83
2023/06/22 09:55:35;;;;;;;4.32;4.03;;;;;;;;;;5113543;28;20495;-83
2023/06/22 09:58:02;;;;;;;4.50;4.10;;;;;;;;;;5114886;28;20051;-84
2023/06/22 10:00:29;;;;;;;5.90;4.28;;;;;;;;;;5114161;28;20047;-84
2023/06/22 10:02:58;;;;;;;6.93;4.10;;;;;;;;;;5114138;28;20043;-86
2023/06/22 10:05:27;;;;;;;3.90;3.60;;;;;;;;;;5113940;28;20054;-85
2023/06/22 10:07:55;;;;;;;3.95;3.60;;;;;;;;;;5113527;28;20055;-87
2023/06/22 10:10:22;;;;;;;4.97;3.60;;;;;;;;;;5113744;28;20055;-84
2023/06/22 10:12:55;;;;;;;3.40;3.20;;;;;;;;;;5114602;28;20048;-84
2023/06/22 10:15:26;;;;;;;3.40;3.13;;;;;;;;;;5112823;28;20048;-84
2023/06/22 10:17:54;;;;;;;5.82;3.60;;;;;;;;;;5113671;28;20047;-84
2023/06/22 10:20:22;;;;;;;5.50;3.88;;;;;;;;;;5113879;28;20126;-86
2023/06/22 10:22:50;;;;;;;6.25;4.00;;;;;;;;;;5114358;28;20040;-85
2023/06/22 10:25:18;;;;;;;5.55;3.20;;;;;;;;;;5114060;28;20088;-85
2023/06/22 10:27:45;;;;;;;7.70;4.13;;;;;;;;;;5114849;28;20047;-86
2023/06/22 10:30:13;;;;;;;9.15;4.20;;;;;;;;;;5113742;28;20039;-87
2023/06/22 10:32:41;;;;;;;4.05;3.75;;;;;;;;;;5113251;28;20057;-85
2023/06/22 10:35:08;;;;;;;3.95;3.63;;;;;;;;;;5113660;28;20411;-86
2023/06/22 10:37:36;;;;;;;6.63;3.80;;;;;;;;;;5113621;28;20089;-87
2023/06/22 10:40:04;;;;;;;8.63;3.90;;;;;;;;;;5113689;28;20085;-86
2023/06/22 10:42:31;;;;;;;4.55;3.88;;;;;;;;;;5113559;28;20066;-84
2023/06/22 10:45:02;;;;;;;5.57;3.22;;;;;;;;;;5113881;28;20499;-89
2023/06/22 10:47:30;;;;;;;3.80;3.50;;;;;;;;;;5113521;28;20051;-84
2023/06/22 10:49:57;;;;;;;3.70;3.40;;;;;;;;;;5113519;28;20040;-86
2023/06/22 10:52:25;;;;;;;3.20;2.97;;;;;;;;;;5113655;28;20075;-86
2023/06/22 10:54:52;;;;;;;2.95;2.75;;;;;;;;;;5113921;28;20059;-85
2023/06/22 10:57:19;;;;;;;3.50;3.30;;;;;;;;;;5113379;28;20116;-84
2023/06/22 10:59:47;;;;;;;4.13;3.25;;;;;;;;;;5113219;28;20100;-84
2023/06/22 11:02:14;;;;;;;3.95;3.65;;;;;;;;;;5114119;28;20412;-84
2023/06/22 11:04:41;;;;;;;3.90;3.60;;;;;;;;;;5113035;28;20055;-87
2023/06/22 11:07:09;;;;;;;6.32;3.30;;;;;;;;;;5113246;28;20139;-86
2023/06/22 11:09:38;;;;;;;3.60;3.30;;;;;;;;;;5113406;28;20152;-85
2023/06/22 11:12:06;;;;;;;4.03;3.72;;;;;;;;;;5112859;28;20086;-86
2023/06/22 11:14:33;;;;;;;5.72;4.20;;;;;;;;;;5112846;28;20050;-84
2023/06/22 11:17:00;;;;;;;3.65;3.35;;;;;;;;;;5112745;28;20050;-84
2023/06/22 11:19:28;;;;;;;3.95;3.75;;;;;;;;;;5112689;28;20059;-84
2023/06/22 11:21:55;;;;;;;4.43;3.95;;;;;;;;;;5113728;28;20058;-85
2023/06/22 11:24:22;;;;;;;4.00;3.80;;;;;;;;;;5112833;28;20048;-85
2023/06/22 11:26:50;;;;;;;3.97;3.72;;;;;;;;;;5115124;28;20047;-85
2023/06/22 11:29:17;;;;;;;5.00;4.30;;;;;;;;;;5117082;28;20074;-84
2023/06/22 11:32:03;;;;;;;4.68;3.85;;;;;;;;;;5116865;28;20523;-86
2023/06/22 11:34:30;;;;;;;7.22;4.10;;;;;;;;;;5118184;28;20089;-87
2023/06/22 11:36:58;;;;;;;4.13;3.80;;;;;;;;;;5118189;28;20047;-88
2023/06/22 11:39:25;;;;;;;7.60;3.70;;;;;;;;;;5117290;28;20052;-86
2023/06/22 11:42:07;;;;;;;14.40;4.28;;;;;;;;;;5117265;28;20054;-87
2023/06/22 11:44:35;;;;;;;3.60;3.40;;;;;;;;;;5117141;28;20089;-89
2023/06/22 11:47:04;;;;;;;8.43;4.05;;;;;;;;;;5117286;28;20155;-86
2023/06/22 11:49:31;;;;;;;8.00;4.28;;;;;;;;;;5118146;28;20074;-86
2023/06/22 11:51:59;;;;;;;7.55;4.00;;;;;;;;;;5116876;28;20083;-85
2023/06/22 11:54:26;;;;;;;3.95;3.55;;;;;;;;;;5116928;28;20048;-85
2023/06/22 11:56:54;;;;;;;4.75;4.03;;;;;;;;;;5117628;28;20051;-85
2023/06/22 11:59:22;;;;;;;4.38;3.97;;;;;;;;;;5116801;28;20043;-86
2023/06/22 12:01:51;;;;;;;6.68;3.50;;;;;;;;;;5116497;28;20051;-85
2023/06/22 12:04:18;;;;;;;8.75;4.47;;;;;;;;;;5116527;28;20047;-87
2023/06/22 12:06:45;;;;;;;11.07;4.20;;;;;;;;;;5116703;28;20116;-87
2023/06/22 12:09:13;;;;;;;4.22;3.88;;;;;;;;;;5116748;28;20097;-84
2023/06/22 12:11:41;;;;;;;6.43;4.00;;;;;;;;;;5116797;28;20134;-85
2023/06/22 12:14:08;;;;;;;4.07;3.72;;;;;;;;;;5117352;28;20066;-87
2023/06/22 12:16:35;;;;;;;5.25;3.97;;;;;;;;;;5116595;28;20051;-87
2023/06/22 12:19:02;;;;;;;4.25;3.95;;;;;;;;;;5117733;28;20101;-85
2023/06/22 12:21:30;;;;;;;7.15;4.47;;;;;;;;;;5117741;28;20553;-85
2023/06/22 12:23:57;;;;;;;5.57;3.80;;;;;;;;;;5116549;28;20044;-87
2023/06/22 12:26:24;;;;;;;4.43;3.75;;;;;;;;;;5116839;28;20048;-87
2023/06/22 12:28:51;;;;;;;8.57;4.25;;;;;;;;;;5116388;28;20058;-88
2023/06/22 12:31:18;;;;;;;4.60;4.20;;;;;;;;;;5116386;28;20075;-86
2023/06/22 12:33:46;;;;;;;6.25;4.13;;;;;;;;;;5116407;28;20047;-88
2023/06/22 12:36:13;;;;;;;4.68;4.00;;;;;;;;;;5115963;28;20108;-85
2023/06/22 12:38:40;;;;;;;4.10;3.80;;;;;;;;;;5115674;28;20484;-87
2023/06/22 12:41:07;;;;;;;6.32;4.25;;;;;;;;;;5116097;28;20097;-86
2023/06/22 12:43:35;;;;;;;5.90;4.22;;;;;;;;;;5116174;28;20509;-86
2023/06/22 12:46:02;;;;;;;4.32;3.75;;;;;;;;;;5115535;28;20055;-85
2023/06/22 12:48:29;;;;;;;5.75;4.53;;;;;;;;;;5116098;28;20108;-85
2023/06/22 12:50:57;;;;;;;9.05;6.32;;;;;;;;;;5116565;28;20067;-83
2023/06/22 12:53:24;;;;;;;7.57;4.07;;;;;;;;;;5116679;28;20104;-85
2023/06/22 12:55:51;;;;;;;5.43;4.53;;;;;;;;;;5116589;28;20112;-84
2023/06/22 12:58:19;;;;;;;6.03;3.90;;;;;;;;;;5115592;28;20052;-85
2023/06/22 13:00:46;;;;;;;4.30;3.92;;;;;;;;;;5115575;28;20438;-84
2023/06/22 13:03:14;;;;;;;8.40;4.57;;;;;;;;;;5115475;28;20055;-85
2023/06/22 13:05:41;;;;;;;8.05;4.90;;;;;;;;;;5115130;28;20098;-83
2023/06/22 13:08:08;;;;;;;7.88;4.55;;;;;;;;;;5116117;28;20097;-84
2023/06/22 13:10:39;;;;;;;4.57;4.15;;;;;;;;;;5115123;28;20043;-85
2023/06/22 13:13:06;;;;;;;4.70;4.30;;;;;;;;;;5115368;28;20063;-85
2023/06/22 13:15:33;;;;;;;8.93;4.40;;;;;;;;;;5115348;28;20305;-87
2023/06/22 13:18:01;;;;;;;5.22;4.30;;;;;;;;;;5115319;28;20058;-85
2023/06/22 13:20:29;;;;;;;6.60;4.88;;;;;;;;;;5115223;28;20048;-85
2023/06/22 13:22:56;;;;;;;9.80;4.40;;;;;;;;;;5114709;28;20159;-84
2023/06/22 13:25:26;;;;;;;9.45;4.35;;;;;;;;;;5116268;28;20067;-84
2023/06/22 13:27:54;;;;;;;7.15;4.80;;;;;;;;;;5115290;28;20135;-88
2023/06/22 13:30:23;;;;;;;4.72;4.20;;;;;;;;;;5115121;28;20054;-87
2023/06/22 13:32:51;;;;;;;7.30;4.07;;;;;;;;;;5114792;28;20051;-85
2023/06/22 13:35:18;;;;;;;8.27;4.47;;;;;;;;;;5114826;28;20412;-86
2023/06/22 13:37:45;;;;;;;5.63;4.20;;;;;;;;;;5114913;28;20545;-87
2023/06/22 13:40:13;;;;;;;7.28;4.38;;;;;;;;;;5115195;28;20458;-85
2023/06/22 13:42:40;;;;;;;6.85;4.03;;;;;;;;;;5115102;28;20503;-88
2023/06/22 13:45:08;;;;;;;5.35;3.70;;;;;;;;;;5115295;28;20055;-89
2023/06/22 13:47:35;;;;;;;8.32;3.60;;;;;;;;;;5114773;28;20480;-86
2023/06/22 13:50:03;;;;;;;4.95;4.05;;;;;;;;;;5113926;28;20043;-85
2023/06/22 13:52:30;;;;;;;4.90;4.47;;;;;;;;;;5114848;28;20445;-87
2023/06/22 13:54:57;;;;;;;6.80;4.55;;;;;;;;;;5114595;28;20510;-84
2023/06/22 13:57:24;;;;;;;7.80;4.00;;;;;;;;;;5115000;28;20087;-83
2023/06/22 13:59:52;;;;;;;5.78;4.28;;;;;;;;;;5113797;28;20143;-84
2023/06/22 14:02:19;;;;;;;4.35;3.90;;;;;;;;;;5113786;28;20048;-85
2023/06/22 14:04:46;;;;;;;6.45;4.30;;;;;;;;;;5114698;28;20044;-85
2023/06/22 14:07:14;;;;;;;7.65;4.57;;;;;;;;;;5113730;28;20089;-85
2023/06/22 14:09:41;;;;;;;5.28;4.00;;;;;;;;;;5113902;28;20082;-85
2023/06/22 14:12:09;;;;;;;4.47;3.80;;;;;;;;;;5114091;28;20055;-86
2023/06/22 14:14:39;;;;;;;7.38;3.83;;;;;;;;;;5113798;28;20105;-85
2023/06/22 14:17:06;;;;;;;9.43;4.15;;;;;;;;;;5114730;28;20080;-85
2023/06/22 14:19:34;;;;;;;6.55;4.10;;;;;;;;;;5114325;27;20442;-85
2023/06/22 14:22:01;;;;;;;6.43;4.28;;;;;;;;;;5113393;28;20048;-84
2023/06/22 14:24:28;;;;;;;6.80;4.15;;;;;;;;;;5113284;28;20384;-83
2023/06/22 14:26:57;;;;;;;8.40;4.32;;;;;;;;;;5113239;28;20047;-86
2023/06/22 14:29:25;;;;;;;5.90;4.00;;;;;;;;;;5113395;28;20043;-83
2023/06/22 14:31:52;;;;;;;6.95;4.07;;;;;;;;;;5113378;28;20051;-84
2023/06/22 14:34:20;;;;;;;9.65;4.55;;;;;;;;;;5114237;28;20142;-83